createdAt,value
2019-05-25T00:02:13.833Z,94907.38
2019-05-25T00:04:42.472Z,94914.66
2019-05-25T00:07:11.137Z,94916.77
2019-05-25T00:09:39.770Z,94908.27
2019-05-25T00:12:08.311Z,94905.70
2019-05-25T00:14:37.431Z,94912.16
2019-05-25T00:17:06.046Z,94914.37
2019-05-25T00:19:34.631Z,94910.20
2019-05-25T00:22:03.167Z,94906.06
2019-05-25T00:24:31.757Z,94907.38
2019-05-25T00:27:00.378Z,94906.12
2019-05-25T00:29:29.066Z,94903.97
2019-05-25T00:31:57.611Z,94898.39
2019-05-25T00:34:28.056Z,94900.16
2019-05-25T00:36:56.557Z,94898.55
2019-05-25T00:39:25.173Z,94883.99
2019-05-25T00:41:53.783Z,94888.70
2019-05-25T00:44:22.324Z,94889.92
2019-05-25T00:46:50.986Z,94890.70
2019-05-25T00:49:19.600Z,94890.25
2019-05-25T00:51:48.219Z,94883.80
2019-05-25T00:54:27.429Z,94884.63
2019-05-25T00:56:47.177Z,94887.17
2019-05-25T00:59:15.784Z,94880.78
2019-05-25T01:01:44.400Z,94884.98
2019-05-25T01:04:15.680Z,94887.55
2019-05-25T01:06:44.160Z,94886.27
2019-05-25T01:09:12.778Z,94893.94
2019-05-25T01:11:41.284Z,94892.20
2019-05-25T01:14:11.328Z,94894.39
2019-05-25T01:16:39.890Z,94886.30
2019-05-25T01:19:08.455Z,94888.03
2019-05-25T01:21:36.991Z,94895.34
2019-05-25T01:24:05.888Z,94894.90
2019-05-25T01:26:34.651Z,94898.78
2019-05-25T01:29:03.452Z,94895.41
2019-05-25T01:31:31.991Z,94897.20
2019-05-25T01:34:00.564Z,94897.59
2019-05-25T01:36:29.112Z,94900.06
2019-05-25T01:38:57.675Z,94899.12
2019-05-25T01:41:26.206Z,94898.66
2019-05-25T01:43:54.756Z,94897.78
2019-05-25T01:46:23.303Z,94894.77
2019-05-25T01:48:51.943Z,94893.10
2019-05-25T01:51:20.700Z,94897.08
2019-05-25T01:53:49.362Z,94899.58
2019-05-25T01:56:18.001Z,94896.28
2019-05-25T01:58:46.641Z,94899.20
2019-05-25T02:01:15.431Z,94901.76
2019-05-25T02:03:44.090Z,94905.12
2019-05-25T02:06:12.671Z,94901.28
2019-05-25T02:08:41.173Z,94900.38
2019-05-25T02:11:12.719Z,94902.11
2019-05-25T02:13:41.366Z,94902.08
2019-05-25T02:16:11.187Z,94900.80
2019-05-25T02:18:39.734Z,94901.76
2019-05-25T02:21:08.408Z,94899.32
2019-05-25T02:23:37.179Z,94904.45
2019-05-25T02:26:05.792Z,94909.97
2019-05-25T02:28:34.379Z,94910.87
2019-05-25T02:31:02.854Z,94918.08
2019-05-25T02:33:31.576Z,94914.23
2019-05-25T02:36:00.116Z,94909.94
2019-05-25T02:38:28.723Z,94907.38
2019-05-25T02:40:57.829Z,94908.23
2019-05-25T02:43:26.461Z,94911.22
2019-05-25T02:45:55.164Z,94911.25
2019-05-25T02:48:23.717Z,94910.41
2019-05-25T02:50:53.157Z,94910.03
2019-05-25T02:53:21.753Z,94917.79
2019-05-25T02:55:50.457Z,94918.20
2019-05-25T02:58:19.070Z,94918.20
2019-05-25T03:00:47.684Z,94922.44
2019-05-25T03:03:16.717Z,94919.42
2019-05-25T03:05:46.508Z,94922.41
2019-05-25T03:08:15.116Z,94927.57
2019-05-25T03:10:44.501Z,94929.30
2019-05-25T03:13:13.112Z,94930.97
2019-05-25T03:15:41.660Z,94930.55
2019-05-25T03:18:10.271Z,94932.20
2019-05-25T03:20:38.884Z,94937.27
2019-05-25T03:23:07.496Z,94933.13
2019-05-25T03:25:48.681Z,94935.36
2019-05-25T03:28:06.437Z,94939.27
2019-05-25T03:30:37.112Z,94940.08
2019-05-25T03:33:06.299Z,94938.31
2019-05-25T03:35:34.954Z,94942.16
2019-05-25T03:38:03.617Z,94943.41
2019-05-25T03:40:32.252Z,94940.84
2019-05-25T03:43:00.865Z,94941.23
2019-05-25T03:45:29.499Z,94937.36
2019-05-25T03:47:58.557Z,94942.03
2019-05-25T03:50:27.086Z,94940.73
2019-05-25T03:52:55.734Z,94939.41
2019-05-25T03:55:24.391Z,94942.36
2019-05-25T03:57:52.941Z,94943.20
2019-05-25T04:00:33.253Z,94944.90
2019-05-25T04:03:01.971Z,94942.72
2019-05-25T04:05:30.615Z,94945.25
2019-05-25T04:07:59.153Z,94946.98
2019-05-25T04:10:27.765Z,94944.80
2019-05-25T04:12:56.297Z,94940.92
2019-05-25T04:15:25.303Z,94942.21
2019-05-25T04:17:53.849Z,94941.28
2019-05-25T04:20:22.505Z,94940.35
2019-05-25T04:22:51.125Z,94944.17
2019-05-25T04:25:19.746Z,94942.34
2019-05-25T04:27:49.571Z,94941.83
2019-05-25T04:30:18.718Z,94942.98
2019-05-25T04:32:47.742Z,94944.05
2019-05-25T04:35:16.697Z,94945.55
2019-05-25T04:37:45.267Z,94936.84
2019-05-25T04:40:13.915Z,94938.80
2019-05-25T04:42:42.537Z,94938.91
2019-05-25T04:45:11.315Z,94941.88
2019-05-25T04:47:39.805Z,94940.17
2019-05-25T04:50:09.090Z,94938.67
2019-05-25T04:52:40.977Z,94938.84
2019-05-25T04:55:08.902Z,94941.05
2019-05-25T04:57:37.645Z,94945.94
2019-05-25T05:00:08.159Z,94949.01
2019-05-25T05:02:36.779Z,94945.27
2019-05-25T05:05:06.738Z,94940.72
2019-05-25T05:07:35.348Z,94945.41
2019-05-25T05:10:08.124Z,94947.94
2019-05-25T05:12:36.756Z,94952.51
2019-05-25T05:15:07.272Z,94959.81
2019-05-25T05:17:35.880Z,94957.42
2019-05-25T05:20:07.216Z,94951.83
2019-05-25T05:22:35.823Z,94960.02
2019-05-25T05:25:05.936Z,94961.91
2019-05-25T05:27:34.477Z,94957.54
2019-05-25T05:30:04.762Z,94966.97
2019-05-25T05:32:33.377Z,94963.77
2019-05-25T05:35:02.041Z,94966.63
2019-05-25T05:37:32.199Z,94969.87
2019-05-25T05:40:02.199Z,94963.23
2019-05-25T05:42:33.077Z,94970.45
2019-05-25T05:45:03.156Z,94967.97
2019-05-25T05:47:34.700Z,94972.34
2019-05-25T05:50:04.823Z,94976.98
2019-05-25T05:52:38.741Z,94972.63
2019-05-25T05:55:10.258Z,94971.74
2019-05-25T05:57:38.905Z,94977.27
2019-05-25T06:00:10.953Z,94975.14
2019-05-25T06:02:39.594Z,94970.77
2019-05-25T06:05:08.902Z,94975.52
2019-05-25T06:07:37.514Z,94971.66
2019-05-25T06:10:07.430Z,94971.61
2019-05-25T06:12:36.041Z,94976.27
2019-05-25T06:15:06.680Z,94971.44
2019-05-25T06:17:35.295Z,94973.06
2019-05-25T06:20:07.762Z,94977.30
2019-05-25T06:22:36.408Z,94976.34
2019-05-25T06:25:07.936Z,94985.16
2019-05-25T06:27:37.079Z,94985.20
2019-05-25T06:30:09.588Z,94983.66
2019-05-25T06:32:38.382Z,94984.31
2019-05-25T06:35:07.855Z,94983.69
2019-05-25T06:37:36.546Z,94985.31
2019-05-25T06:40:10.143Z,94983.14
2019-05-25T06:42:38.811Z,94988.22
2019-05-25T06:45:09.669Z,94985.92
2019-05-25T06:47:38.283Z,94987.63
2019-05-25T06:50:07.902Z,94978.80
2019-05-25T06:52:36.486Z,94984.90
2019-05-25T06:55:07.371Z,94978.86
2019-05-25T06:57:43.266Z,94985.59
2019-05-25T07:00:08.777Z,94992.19
2019-05-25T07:02:38.072Z,94984.70
2019-05-25T07:05:09.983Z,94991.09
2019-05-25T07:07:38.602Z,94982.34
2019-05-25T07:10:09.728Z,94988.13
2019-05-25T07:12:38.384Z,94993.60
2019-05-25T07:15:10.399Z,94996.39
2019-05-25T07:17:38.952Z,94992.58
2019-05-25T07:20:08.385Z,94996.26
2019-05-25T07:22:37.004Z,95000.20
2019-05-25T07:25:07.598Z,94992.75
2019-05-25T07:27:36.301Z,94995.23
2019-05-25T07:30:09.978Z,95001.30
2019-05-25T07:32:38.614Z,95004.66
2019-05-25T07:35:08.123Z,95001.24
2019-05-25T07:37:39.739Z,95001.61
2019-05-25T07:40:09.021Z,95004.34
2019-05-25T07:42:37.787Z,95002.48
2019-05-25T07:45:08.768Z,95007.05
2019-05-25T07:47:37.378Z,95005.68
2019-05-25T07:50:09.955Z,95006.16
2019-05-25T07:52:38.780Z,95009.27
2019-05-25T07:55:08.127Z,95007.80
2019-05-25T07:57:37.034Z,95009.11
2019-05-25T08:00:07.250Z,95013.30
2019-05-25T08:02:35.733Z,95012.46
2019-05-25T08:05:06.260Z,95014.00
2019-05-25T08:07:34.876Z,95012.00
2019-05-25T08:10:03.889Z,95012.48
2019-05-25T08:12:32.605Z,95001.97
2019-05-25T08:15:01.265Z,95006.78
2019-05-25T08:17:30.033Z,95010.66
2019-05-25T08:19:58.579Z,95007.91
2019-05-25T08:22:27.052Z,95006.02
2019-05-25T08:24:55.592Z,95009.96
2019-05-25T08:27:24.208Z,95001.73
2019-05-25T08:29:52.864Z,95005.02
2019-05-25T08:32:21.475Z,94998.59
2019-05-25T08:34:49.954Z,95002.23
2019-05-25T08:37:18.619Z,95005.09
2019-05-25T08:39:47.560Z,95008.60
2019-05-25T08:42:16.170Z,95014.26
2019-05-25T08:44:44.857Z,95021.64
2019-05-25T08:47:13.399Z,95025.70
2019-05-25T08:49:41.944Z,95017.88
2019-05-25T08:52:10.493Z,95021.23
2019-05-25T08:54:39.121Z,95018.05
2019-05-25T08:57:07.762Z,95021.27
2019-05-25T08:59:36.336Z,95027.09
2019-05-25T09:02:04.955Z,95029.56
2019-05-25T09:04:33.497Z,95027.58
2019-05-25T09:07:02.133Z,95025.81
2019-05-25T09:09:30.600Z,95022.00
2019-05-25T09:11:59.219Z,95020.33
2019-05-25T09:14:27.761Z,95018.40
2019-05-25T09:16:56.304Z,95027.06
2019-05-25T09:19:24.812Z,95023.52
2019-05-25T09:22:02.378Z,95027.31
2019-05-25T09:24:23.838Z,95027.53
2019-05-25T09:26:52.385Z,95027.77
2019-05-25T09:29:21.008Z,95033.55
2019-05-25T09:31:49.665Z,95028.91
2019-05-25T09:34:18.211Z,95024.56
2019-05-25T09:36:46.831Z,95023.99
2019-05-25T09:39:15.388Z,95025.68
2019-05-25T09:41:43.929Z,95030.16
2019-05-25T09:44:12.533Z,95026.92
2019-05-25T09:46:41.068Z,95020.64
2019-05-25T09:49:09.830Z,95028.18
2019-05-25T09:51:38.444Z,95029.23
2019-05-25T09:54:06.993Z,95029.77
2019-05-25T09:56:35.714Z,95042.38
2019-05-25T09:59:17.625Z,95037.98
2019-05-25T10:01:34.702Z,95039.59
2019-05-25T10:04:03.357Z,95038.33
2019-05-25T10:06:31.953Z,95035.39
2019-05-25T10:09:00.628Z,95028.64
2019-05-25T10:11:29.251Z,95032.39
2019-05-25T10:13:57.847Z,95035.14
2019-05-25T10:16:26.507Z,95021.63
2019-05-25T10:18:55.147Z,95024.58
2019-05-25T10:21:23.688Z,95032.29
2019-05-25T10:23:52.303Z,95036.88
2019-05-25T10:26:23.015Z,95033.78
2019-05-25T10:28:51.100Z,95035.99
2019-05-25T10:31:19.648Z,95029.72
2019-05-25T10:33:49.093Z,95022.67
2019-05-25T10:36:17.705Z,95022.52
2019-05-25T10:38:46.348Z,95024.09
2019-05-25T10:41:14.976Z,95023.75
2019-05-25T10:43:43.534Z,95023.98
2019-05-25T10:46:12.245Z,95011.84
2019-05-25T10:48:40.848Z,95010.02
2019-05-25T10:51:09.459Z,95008.13
2019-05-25T10:53:38.000Z,95007.81
2019-05-25T10:56:06.656Z,95004.21
2019-05-25T10:58:35.341Z,95007.88
2019-05-25T11:01:03.960Z,95004.34
2019-05-25T11:03:32.497Z,95003.47
2019-05-25T11:06:01.143Z,94991.39
2019-05-25T11:08:30.067Z,94990.33
2019-05-25T11:10:58.675Z,94978.20
2019-05-25T11:13:28.947Z,94975.59
2019-05-25T11:15:57.585Z,94980.86
2019-05-25T11:18:26.351Z,94978.41
2019-05-25T11:20:54.859Z,94978.24
2019-05-25T11:23:23.469Z,94979.89
2019-05-25T11:25:52.078Z,94974.44
2019-05-25T11:28:21.015Z,94969.66
2019-05-25T11:30:49.534Z,94971.05
2019-05-25T11:33:18.109Z,94963.48
2019-05-25T11:35:46.755Z,94968.72
2019-05-25T11:38:15.367Z,94968.89
2019-05-25T11:40:43.976Z,94975.35
2019-05-25T11:43:12.469Z,94970.00
2019-05-25T11:45:41.086Z,94969.31
2019-05-25T11:48:09.630Z,94973.96
2019-05-25T11:50:38.236Z,94977.16
2019-05-25T11:53:06.882Z,94966.09
2019-05-25T11:55:35.482Z,94965.52
2019-05-25T11:58:04.301Z,94964.84
2019-05-25T12:00:33.630Z,94966.62
2019-05-25T12:03:02.209Z,94978.28
2019-05-25T12:05:30.816Z,94971.20
2019-05-25T12:07:59.447Z,94967.73
2019-05-25T12:10:28.052Z,94964.66
2019-05-25T12:12:56.672Z,94965.40
2019-05-25T12:15:25.341Z,94959.92
2019-05-25T12:17:53.803Z,94972.99
2019-05-25T12:20:22.886Z,94968.41
2019-05-25T12:22:51.427Z,94971.73
2019-05-25T12:25:20.061Z,94966.65
2019-05-25T12:27:49.498Z,94970.34
2019-05-25T12:30:20.715Z,94969.59
2019-05-25T12:32:49.383Z,94965.84
2019-05-25T12:35:19.538Z,94960.83
2019-05-25T12:37:48.932Z,94963.22
2019-05-25T12:40:18.070Z,94959.59
2019-05-25T12:42:46.712Z,94965.11
2019-05-25T12:45:15.759Z,94961.73
2019-05-25T12:47:44.386Z,94967.25
2019-05-25T12:50:13.492Z,94970.25
2019-05-25T12:52:42.687Z,94972.91
2019-05-25T12:55:11.402Z,94968.38
2019-05-25T12:57:40.005Z,94962.50
2019-05-25T13:00:16.182Z,94959.91
2019-05-25T13:02:39.927Z,94958.53
2019-05-25T13:05:09.196Z,94955.61
2019-05-25T13:07:37.804Z,94956.84
2019-05-25T13:10:07.802Z,94958.61
2019-05-25T13:12:36.411Z,94962.03
2019-05-25T13:15:07.023Z,94961.81
2019-05-25T13:17:35.550Z,94945.95
2019-05-25T13:20:05.963Z,94960.70
2019-05-25T13:22:34.438Z,94957.27
2019-05-25T13:25:03.053Z,94956.98
2019-05-25T13:27:31.729Z,94960.34
2019-05-25T13:30:03.024Z,94956.80
2019-05-25T13:32:30.702Z,94947.72
2019-05-25T13:34:59.182Z,94948.27
2019-05-25T13:37:27.795Z,94946.14
2019-05-25T13:39:56.298Z,94946.97
2019-05-25T13:42:24.819Z,94959.58
2019-05-25T13:44:53.431Z,94955.30
2019-05-25T13:47:22.097Z,94952.48
2019-05-25T13:49:50.670Z,94964.27
2019-05-25T13:52:19.260Z,94958.21
2019-05-25T13:54:47.806Z,94962.03
2019-05-25T13:57:16.386Z,94963.72
2019-05-25T13:59:45.129Z,94971.04
2019-05-25T14:02:13.681Z,94961.56
2019-05-25T14:04:42.143Z,94972.95
2019-05-25T14:07:10.761Z,94967.77
2019-05-25T14:09:39.436Z,94976.19
2019-05-25T14:12:07.991Z,94973.67
2019-05-25T14:14:36.458Z,94968.66
2019-05-25T14:17:05.169Z,94971.08
2019-05-25T14:19:33.707Z,94961.16
2019-05-25T14:22:02.345Z,94962.61
2019-05-25T14:24:30.872Z,94964.77
2019-05-25T14:26:59.533Z,94964.95
2019-05-25T14:29:28.073Z,94958.09
2019-05-25T14:31:56.779Z,94961.70
2019-05-25T14:34:25.514Z,94978.93
2019-05-25T14:36:53.986Z,94970.14
2019-05-25T14:39:22.530Z,94979.40
2019-05-25T14:41:51.087Z,94971.69
2019-05-25T14:44:19.825Z,94972.63
2019-05-25T14:46:48.474Z,94972.80
2019-05-25T14:49:17.620Z,94968.51
2019-05-25T14:51:46.387Z,94965.02
2019-05-25T14:54:14.860Z,94972.69
2019-05-25T14:56:43.697Z,94962.78
2019-05-25T14:59:12.341Z,94976.29
2019-05-25T15:01:40.878Z,94970.20
2019-05-25T15:04:09.490Z,94971.79
2019-05-25T15:06:38.096Z,94972.16
2019-05-25T15:09:07.969Z,94966.06
2019-05-25T15:11:36.535Z,94970.78
2019-05-25T15:14:05.143Z,94963.83
2019-05-25T15:16:33.784Z,94959.58
2019-05-25T15:19:02.409Z,94967.80
2019-05-25T15:21:31.100Z,94964.47
2019-05-25T15:23:59.680Z,94971.03
2019-05-25T15:26:28.220Z,94973.91
2019-05-25T15:28:56.875Z,94967.36
2019-05-25T15:31:25.494Z,94972.26
2019-05-25T15:33:54.189Z,94972.98
2019-05-25T15:36:22.663Z,94978.27
2019-05-25T15:38:52.664Z,94970.20
2019-05-25T15:41:21.139Z,94967.06
2019-05-25T15:43:49.711Z,94963.54
2019-05-25T15:46:18.243Z,94970.71
2019-05-25T15:48:46.887Z,94965.09
2019-05-25T15:51:15.534Z,94965.85
2019-05-25T15:53:44.150Z,94964.38
2019-05-25T15:56:12.615Z,94966.22
2019-05-25T15:58:41.161Z,94963.19
2019-05-25T16:01:09.797Z,94960.91
2019-05-25T16:03:38.384Z,94962.70
2019-05-25T16:06:06.931Z,94963.72
2019-05-25T16:08:37.124Z,94964.69
2019-05-25T16:11:05.735Z,94964.94
2019-05-25T16:13:34.276Z,94963.98
2019-05-25T16:16:02.939Z,94962.94
2019-05-25T16:18:31.547Z,94970.79
2019-05-25T16:21:00.021Z,94961.39
2019-05-25T16:23:28.560Z,94963.76
2019-05-25T16:25:57.253Z,94964.76
2019-05-25T16:28:25.800Z,94967.72
2019-05-25T16:30:54.515Z,94962.63
2019-05-25T16:33:23.124Z,94968.72
2019-05-25T16:35:52.258Z,94972.42
2019-05-25T16:38:21.300Z,94961.89
2019-05-25T16:40:49.904Z,94974.56
2019-05-25T16:43:18.639Z,94971.20
2019-05-25T16:45:47.236Z,94975.33
2019-05-25T16:48:15.852Z,94979.76
2019-05-25T16:50:44.332Z,94977.70
2019-05-25T16:53:12.966Z,94978.23
2019-05-25T16:55:41.583Z,94975.98
2019-05-25T16:58:10.191Z,94981.00
2019-05-25T17:00:38.842Z,94979.57
2019-05-25T17:03:07.712Z,94980.70
2019-05-25T17:05:36.324Z,94985.88
2019-05-25T17:08:04.981Z,94981.46
2019-05-25T17:10:33.526Z,94980.19
2019-05-25T17:13:03.602Z,94985.27
2019-05-25T17:15:32.868Z,94989.50
2019-05-25T17:18:04.668Z,94987.89
2019-05-25T17:20:31.843Z,94991.30
2019-05-25T17:23:00.556Z,94992.25
2019-05-25T17:25:29.217Z,94994.85
2019-05-25T17:27:57.822Z,94989.65
2019-05-25T17:30:45.361Z,94992.81
2019-05-25T17:33:14.426Z,94993.09
2019-05-25T17:35:44.338Z,94997.34
2019-05-25T17:38:12.990Z,94992.06
2019-05-25T17:40:41.651Z,94985.56
2019-05-25T17:43:10.288Z,94993.22
2019-05-25T17:45:38.998Z,94991.82
2019-05-25T17:48:07.617Z,94996.39
2019-05-25T17:50:36.242Z,94995.36
2019-05-25T17:53:05.118Z,94999.50
2019-05-25T17:55:33.731Z,95006.05
2019-05-25T17:58:02.280Z,94999.63
2019-05-25T18:00:42.199Z,95000.08
2019-05-25T18:03:10.867Z,95001.30
2019-05-25T18:05:39.712Z,94999.94
2019-05-25T18:08:09.120Z,95000.99
2019-05-25T18:10:52.150Z,95004.28
2019-05-25T18:13:08.367Z,95003.88
2019-05-25T18:15:36.975Z,95012.19
2019-05-25T18:18:07.361Z,95009.66
2019-05-25T18:20:36.277Z,95013.99
2019-05-25T18:23:05.290Z,95018.10
2019-05-25T18:25:33.827Z,95013.99
2019-05-25T18:28:02.448Z,95026.58
2019-05-25T18:30:31.267Z,95025.48
2019-05-25T18:33:00.089Z,95027.98
2019-05-25T18:35:28.702Z,95025.12
2019-05-25T18:37:57.315Z,95028.80
2019-05-25T18:40:26.226Z,95038.52
2019-05-25T18:42:54.800Z,95043.44
2019-05-25T18:45:24.765Z,95040.93
2019-05-25T18:47:53.276Z,95053.34
2019-05-25T18:50:22.318Z,95063.66
2019-05-25T18:52:50.814Z,95062.04
2019-05-25T18:55:19.828Z,95065.88
2019-05-25T18:57:48.436Z,95067.61
2019-05-25T19:00:17.661Z,95075.66
2019-05-25T19:02:46.221Z,95077.45
2019-05-25T19:05:15.674Z,95077.27
2019-05-25T19:07:44.266Z,95084.48
2019-05-25T19:10:13.317Z,95083.88
2019-05-25T19:12:41.977Z,95087.10
2019-05-25T19:15:11.321Z,95089.98
2019-05-25T19:17:40.000Z,95094.10
2019-05-25T19:20:09.570Z,95094.39
2019-05-25T19:22:38.247Z,95100.18
2019-05-25T19:25:09.536Z,95104.71
2019-05-25T19:27:38.144Z,95110.00
2019-05-25T19:30:08.652Z,95104.61
2019-05-25T19:32:37.204Z,95106.05
2019-05-25T19:35:06.695Z,95105.34
2019-05-25T19:37:35.156Z,95116.61
2019-05-25T19:40:08.999Z,95107.75
2019-05-25T19:42:36.035Z,95104.41
2019-05-25T19:45:07.697Z,95105.34
2019-05-25T19:47:36.308Z,95105.10
2019-05-25T19:50:06.993Z,95110.94
2019-05-25T19:52:38.563Z,95106.48
2019-05-25T19:55:07.869Z,95110.59
2019-05-25T19:57:37.879Z,95104.78
2019-05-25T20:00:08.738Z,95105.36
2019-05-25T20:02:37.756Z,95112.20
2019-05-25T20:05:16.464Z,95112.30
2019-05-25T20:07:40.264Z,95117.98
2019-05-25T20:10:09.989Z,95113.48
2019-05-25T20:12:38.870Z,95112.45
2019-05-25T20:15:08.688Z,95110.36
2019-05-25T20:17:37.959Z,95113.53
2019-05-25T20:20:09.295Z,95112.46
2019-05-25T20:22:37.813Z,95113.89
2019-05-25T20:25:07.169Z,95124.73
2019-05-25T20:27:37.140Z,95128.23
2019-05-25T20:30:07.787Z,95125.27
2019-05-25T20:32:36.400Z,95130.85
2019-05-25T20:35:06.325Z,95133.98
2019-05-25T20:37:34.949Z,95135.30
2019-05-25T20:40:04.559Z,95133.27
2019-05-25T20:42:33.193Z,95138.81
2019-05-25T20:45:01.767Z,95138.15
2019-05-25T20:47:30.652Z,95143.64
2019-05-25T20:50:02.224Z,95147.97
2019-05-25T20:52:30.909Z,95151.88
2019-05-25T20:54:59.444Z,95157.06
2019-05-25T20:57:28.005Z,95152.87
2019-05-25T20:59:56.628Z,95163.81
2019-05-25T21:02:25.858Z,95158.36
2019-05-25T21:04:54.429Z,95163.58
2019-05-25T21:07:22.997Z,95161.58
2019-05-25T21:09:51.611Z,95162.58
2019-05-25T21:12:20.210Z,95170.74
2019-05-25T21:14:48.830Z,95170.40
2019-05-25T21:17:17.464Z,95166.66
2019-05-25T21:19:46.265Z,95167.67
2019-05-25T21:22:14.767Z,95172.92
2019-05-25T21:24:43.338Z,95173.44
2019-05-25T21:27:13.388Z,95169.62
2019-05-25T21:29:42.030Z,95170.11
2019-05-25T21:32:10.686Z,95172.75
2019-05-25T21:34:39.324Z,95174.84
2019-05-25T21:37:09.451Z,95183.72
2019-05-25T21:39:38.084Z,95184.92
2019-05-25T21:42:06.709Z,95186.27
2019-05-25T21:44:35.373Z,95191.87
2019-05-25T21:47:04.004Z,95187.69
2019-05-25T21:49:32.688Z,95183.56
2019-05-25T21:52:01.305Z,95184.50
2019-05-25T21:54:29.926Z,95188.31
2019-05-25T21:56:58.546Z,95179.81
2019-05-25T21:59:27.151Z,95183.23
2019-05-25T22:01:55.777Z,95186.31
2019-05-25T22:04:24.396Z,95193.19
2019-05-25T22:06:53.031Z,95193.30
2019-05-25T22:09:21.586Z,95191.52
2019-05-25T22:11:50.206Z,95191.81
2019-05-25T22:14:18.826Z,95190.05
2019-05-25T22:16:47.489Z,95191.80
2019-05-25T22:19:16.122Z,95194.86
2019-05-25T22:21:46.445Z,95188.50
2019-05-25T22:24:14.875Z,95188.52
2019-05-25T22:26:43.357Z,95190.72
2019-05-25T22:29:12.176Z,95192.81
2019-05-25T22:31:40.787Z,95191.46
2019-05-25T22:34:09.405Z,95194.02
2019-05-25T22:36:40.955Z,95191.44
2019-05-25T22:39:08.938Z,95195.66
2019-05-25T22:41:38.733Z,95194.82
2019-05-25T22:44:07.379Z,95197.38
2019-05-25T22:46:35.923Z,95194.75
2019-05-25T22:49:04.880Z,95192.61
2019-05-25T22:51:33.517Z,95193.84
2019-05-25T22:54:02.159Z,95193.45
2019-05-25T22:56:30.765Z,95192.19
2019-05-25T22:58:59.374Z,95193.42
2019-05-25T23:01:27.921Z,95193.89
2019-05-25T23:03:56.468Z,95192.65
2019-05-25T23:06:26.587Z,95187.59
2019-05-25T23:08:55.215Z,95193.66
2019-05-25T23:11:23.861Z,95191.63
2019-05-25T23:13:52.443Z,95190.83
2019-05-25T23:16:21.086Z,95189.17
2019-05-25T23:18:49.635Z,95185.40
2019-05-25T23:21:18.302Z,95188.89
2019-05-25T23:23:46.852Z,95185.51
2019-05-25T23:26:15.631Z,95189.70
2019-05-25T23:28:44.186Z,95186.33
2019-05-25T23:31:14.319Z,95179.56
2019-05-25T23:33:42.831Z,95178.81
2019-05-25T23:36:11.477Z,95184.47
2019-05-25T23:38:40.062Z,95182.77
2019-05-25T23:41:08.615Z,95187.95
2019-05-25T23:43:37.296Z,95184.13
2019-05-25T23:46:06.163Z,95181.64
2019-05-25T23:48:34.781Z,95186.74
2019-05-25T23:51:03.388Z,95187.16
2019-05-25T23:53:31.995Z,95192.28
2019-05-25T23:56:02.123Z,95196.71
2019-05-25T23:58:30.753Z,95195.55
